sensor_id;sensor_type;location;lat;lon;timestamp;pressure;altitude;pressure_sealevel;temperature;humidity
31717;BME280;18301;51.076;17.046;2022-09-23T00:00:04;100782.88;;;9.59;79.60
31717;BME280;18301;51.076;17.046;2022-09-23T00:05:06;100789.44;;;9.55;79.93
31717;BME280;18301;51.076;17.046;2022-09-23T00:10:08;100790.97;;;9.44;80.33
31717;BME280;18301;51.076;17.046;2022-09-23T00:15:09;100783.66;;;9.47;80.38
31717;BME280;18301;51.076;17.046;2022-09-23T00:20:12;100787.50;;;9.28;80.69
31717;BME280;18301;51.076;17.046;2022-09-23T00:25:14;100782.31;;;9.39;80.69
31717;BME280;18301;51.076;17.046;2022-09-23T00:30:15;100772.41;;;9.40;80.80
31717;BME280;18301;51.076;17.046;2022-09-23T00:35:18;100777.31;;;9.33;80.79
31717;BME280;18301;51.076;17.046;2022-09-23T00:40:20;100764.31;;;9.26;80.79
31717;BME280;18301;51.076;17.046;2022-09-23T00:45:22;100771.44;;;9.27;81.05
31717;BME280;18301;51.076;17.046;2022-09-23T00:55:39;100760.47;;;9.30;81.24
31717;BME280;18301;51.076;17.046;2022-09-23T01:00:42;100750.66;;;9.29;81.17
31717;BME280;18301;51.076;17.046;2022-09-23T01:05:44;100748.94;;;9.28;80.91
31717;BME280;18301;51.076;17.046;2022-09-23T01:11:09;100752.31;;;9.31;81.28
31717;BME280;18301;51.076;17.046;2022-09-23T01:16:43;100750.47;;;9.32;80.69
31717;BME280;18301;51.076;17.046;2022-09-23T01:21:57;100751.31;;;9.32;81.15
31717;BME280;18301;51.076;17.046;2022-09-23T01:27:06;100748.94;;;9.28;80.87
31717;BME280;18301;51.076;17.046;2022-09-23T01:32:17;100745.59;;;9.24;81.27
31717;BME280;18301;51.076;17.046;2022-09-23T01:37:35;100738.38;;;9.25;81.12
31717;BME280;18301;51.076;17.046;2022-09-23T01:42:42;100744.50;;;9.27;80.98
31717;BME280;18301;51.076;17.046;2022-09-23T01:47:51;100723.94;;;9.11;81.05
31717;BME280;18301;51.076;17.046;2022-09-23T01:53:00;100734.03;;;9.08;81.48
31717;BME280;18301;51.076;17.046;2022-09-23T01:58:06;100726.72;;;9.10;81.18
31717;BME280;18301;51.076;17.046;2022-09-23T02:03:14;100723.63;;;9.02;81.43
31717;BME280;18301;51.076;17.046;2022-09-23T02:08:21;100737.66;;;8.92;81.62
31717;BME280;18301;51.076;17.046;2022-09-23T02:18:44;100731.69;;;8.73;82.61
31717;BME280;18301;51.076;17.046;2022-09-23T02:23:51;100723.59;;;8.73;82.91
31717;BME280;18301;51.076;17.046;2022-09-23T02:29:27;100732.28;;;8.78;82.77
31717;BME280;18301;51.076;17.046;2022-09-23T02:45:14;100730.34;;;8.80;82.42
31717;BME280;18301;51.076;17.046;2022-09-23T02:50:15;100723.78;;;8.70;82.46
31717;BME280;18301;51.076;17.046;2022-09-23T02:55:20;100721.00;;;8.57;82.38
31717;BME280;18301;51.076;17.046;2022-09-23T03:00:24;100723.38;;;8.62;82.61
31717;BME280;18301;51.076;17.046;2022-09-23T03:05:30;100722.44;;;8.63;82.60
31717;BME280;18301;51.076;17.046;2022-09-23T03:10:42;100720.31;;;8.68;82.58
31717;BME280;18301;51.076;17.046;2022-09-23T03:15:59;100711.31;;;8.69;82.62
31717;BME280;18301;51.076;17.046;2022-09-23T03:21:14;100708.69;;;8.53;82.46
31717;BME280;18301;51.076;17.046;2022-09-23T03:26:29;100700.50;;;8.55;82.41
31717;BME280;18301;51.076;17.046;2022-09-23T03:31:32;100704.06;;;8.55;82.42
31717;BME280;18301;51.076;17.046;2022-09-23T03:36:38;100703.13;;;8.56;82.38
31717;BME280;18301;51.076;17.046;2022-09-23T03:41:54;100701.66;;;8.50;82.27
31717;BME280;18301;51.076;17.046;2022-09-23T03:46:58;100698.38;;;8.45;82.41
31717;BME280;18301;51.076;17.046;2022-09-23T03:51:59;100690.03;;;8.34;82.23
31717;BME280;18301;51.076;17.046;2022-09-23T03:57:02;100689.38;;;8.30;82.27
31717;BME280;18301;51.076;17.046;2022-09-23T04:02:04;100689.06;;;8.21;82.60
31717;BME280;18301;51.076;17.046;2022-09-23T04:07:08;100681.97;;;8.20;82.41
31717;BME280;18301;51.076;17.046;2022-09-23T04:12:13;100683.88;;;8.18;82.47
31717;BME280;18301;51.076;17.046;2022-09-23T04:17:15;100674.25;;;8.14;82.41
31717;BME280;18301;51.076;17.046;2022-09-23T04:22:17;100681.41;;;7.99;82.64
31717;BME280;18301;51.076;17.046;2022-09-23T04:27:18;100686.34;;;7.91;82.65
31717;BME280;18301;51.076;17.046;2022-09-23T04:32:20;100685.13;;;7.96;82.93
31717;BME280;18301;51.076;17.046;2022-09-23T04:37:21;100683.22;;;7.98;82.75
31717;BME280;18301;51.076;17.046;2022-09-23T04:42:27;100686.84;;;7.97;82.91
31717;BME280;18301;51.076;17.046;2022-09-23T04:47:30;100686.50;;;8.03;82.88
31717;BME280;18301;51.076;17.046;2022-09-23T04:52:32;100696.38;;;8.03;82.61
31717;BME280;18301;51.076;17.046;2022-09-23T04:57:33;100701.38;;;8.09;82.75
31717;BME280;18301;51.076;17.046;2022-09-23T05:02:41;100687.88;;;8.11;82.57
31717;BME280;18301;51.076;17.046;2022-09-23T05:07:42;100699.75;;;8.06;82.73
31717;BME280;18301;51.076;17.046;2022-09-23T05:12:44;100686.66;;;8.00;82.54
31717;BME280;18301;51.076;17.046;2022-09-23T05:17:46;100700.72;;;8.05;83.05
31717;BME280;18301;51.076;17.046;2022-09-23T05:22:47;100705.22;;;8.05;82.61
31717;BME280;18301;51.076;17.046;2022-09-23T05:27:48;100705.03;;;8.08;82.47
31717;BME280;18301;51.076;17.046;2022-09-23T05:32:50;100704.19;;;8.07;82.52
31717;BME280;18301;51.076;17.046;2022-09-23T05:37:52;100708.53;;;8.10;82.58
31717;BME280;18301;51.076;17.046;2022-09-23T05:42:53;100711.59;;;8.18;82.28
31717;BME280;18301;51.076;17.046;2022-09-23T05:47:55;100704.75;;;8.28;82.49
31717;BME280;18301;51.076;17.046;2022-09-23T05:52:56;100704.81;;;8.43;82.79
31717;BME280;18301;51.076;17.046;2022-09-23T05:57:57;100713.09;;;8.54;82.30
31717;BME280;18301;51.076;17.046;2022-09-23T06:02:59;100711.31;;;8.69;82.45
31717;BME280;18301;51.076;17.046;2022-09-23T06:08:01;100706.03;;;8.82;82.21
31717;BME280;18301;51.076;17.046;2022-09-23T06:13:03;100707.88;;;8.95;82.20
31717;BME280;18301;51.076;17.046;2022-09-23T06:18:05;100711.34;;;9.12;81.97
31717;BME280;18301;51.076;17.046;2022-09-23T06:23:09;100705.28;;;9.22;81.80
31717;BME280;18301;51.076;17.046;2022-09-23T06:28:11;100712.69;;;9.33;81.51
31717;BME280;18301;51.076;17.046;2022-09-23T06:33:13;100719.09;;;9.45;81.20
31717;BME280;18301;51.076;17.046;2022-09-23T06:38:14;100711.09;;;9.58;80.99
31717;BME280;18301;51.076;17.046;2022-09-23T06:43:16;100715.31;;;9.76;81.02
31717;BME280;18301;51.076;17.046;2022-09-23T06:48:18;100718.78;;;9.91;80.87
31717;BME280;18301;51.076;17.046;2022-09-23T06:53:20;100716.44;;;10.13;80.23
31717;BME280;18301;51.076;17.046;2022-09-23T06:58:25;100725.81;;;10.35;80.04
31717;BME280;18301;51.076;17.046;2022-09-23T07:03:27;100717.09;;;10.57;79.19
31717;BME280;18301;51.076;17.046;2022-09-23T07:08:57;100721.44;;;10.85;78.57
31717;BME280;18301;51.076;17.046;2022-09-23T07:14:12;100715.81;;;11.01;78.18
31717;BME280;18301;51.076;17.046;2022-09-23T07:19:14;100718.66;;;11.12;77.76
31717;BME280;18301;51.076;17.046;2022-09-23T07:24:15;100713.00;;;11.28;77.18
31717;BME280;18301;51.076;17.046;2022-09-23T07:29:18;100712.31;;;11.50;76.30
31717;BME280;18301;51.076;17.046;2022-09-23T07:34:19;100718.00;;;11.71;76.45
31717;BME280;18301;51.076;17.046;2022-09-23T07:39:21;100715.34;;;11.95;75.96
31717;BME280;18301;51.076;17.046;2022-09-23T07:44:22;100717.47;;;12.27;75.31
31717;BME280;18301;51.076;17.046;2022-09-23T07:49:26;100706.25;;;12.55;74.91
31717;BME280;18301;51.076;17.046;2022-09-23T07:54:27;100705.66;;;12.74;73.86
31717;BME280;18301;51.076;17.046;2022-09-23T07:59:37;100707.44;;;12.98;73.96
31717;BME280;18301;51.076;17.046;2022-09-23T08:05:22;100696.53;;;13.33;71.05
31717;BME280;18301;51.076;17.046;2022-09-23T08:10:23;100689.09;;;13.57;71.63
31717;BME280;18301;51.076;17.046;2022-09-23T08:15:25;100693.41;;;13.71;71.22
31717;BME280;18301;51.076;17.046;2022-09-23T08:20:28;100694.16;;;13.73;70.38
31717;BME280;18301;51.076;17.046;2022-09-23T08:25:47;100686.06;;;13.94;70.30
31717;BME280;18301;51.076;17.046;2022-09-23T08:30:49;100679.59;;;14.18;69.89
31717;BME280;18301;51.076;17.046;2022-09-23T08:35:51;100680.19;;;14.21;69.48
31717;BME280;18301;51.076;17.046;2022-09-23T08:41:01;100685.63;;;14.42;69.56
31717;BME280;18301;51.076;17.046;2022-09-23T08:46:08;100675.72;;;14.53;68.69
31717;BME280;18301;51.076;17.046;2022-09-23T08:51:18;100683.75;;;14.54;65.99
31717;BME280;18301;51.076;17.046;2022-09-23T08:56:22;100677.06;;;14.79;67.40
31717;BME280;18301;51.076;17.046;2022-09-23T09:06:36;100668.13;;;15.19;65.85
31717;BME280;18301;51.076;17.046;2022-09-23T09:12:18;100672.47;;;15.01;64.64
31717;BME280;18301;51.076;17.046;2022-09-23T09:17:53;100669.75;;;15.31;64.32
31717;BME280;18301;51.076;17.046;2022-09-23T09:23:06;100666.94;;;15.42;63.72
31717;BME280;18301;51.076;17.046;2022-09-23T09:28:23;100666.31;;;15.70;62.10
31717;BME280;18301;51.076;17.046;2022-09-23T09:33:39;100666.34;;;15.89;62.40
31717;BME280;18301;51.076;17.046;2022-09-23T09:38:45;100655.13;;;15.73;61.74
31717;BME280;18301;51.076;17.046;2022-09-23T09:43:47;100653.72;;;15.98;62.28
31717;BME280;18301;51.076;17.046;2022-09-23T09:49:01;100660.75;;;16.10;59.70
31717;BME280;18301;51.076;17.046;2022-09-23T09:54:36;100660.78;;;16.29;61.18
31717;BME280;18301;51.076;17.046;2022-09-23T09:59:38;100655.59;;;16.46;59.70
31717;BME280;18301;51.076;17.046;2022-09-23T10:04:44;100648.56;;;16.43;59.08
31717;BME280;18301;51.076;17.046;2022-09-23T10:09:49;100649.44;;;16.53;57.39
31717;BME280;18301;51.076;17.046;2022-09-23T10:14:55;100633.91;;;16.73;57.99
31717;BME280;18301;51.076;17.046;2022-09-23T10:19:59;100643.69;;;16.66;54.37
31717;BME280;18301;51.076;17.046;2022-09-23T10:25:06;100636.78;;;16.62;52.14
31717;BME280;18301;51.076;17.046;2022-09-23T10:30:21;100636.78;;;16.72;54.48
31717;BME280;18301;51.076;17.046;2022-09-23T10:35:24;100628.41;;;16.93;54.73
31717;BME280;18301;51.076;17.046;2022-09-23T10:40:29;100623.22;;;17.09;50.44
31717;BME280;18301;51.076;17.046;2022-09-23T10:45:53;100609.28;;;17.12;52.81
31717;BME280;18301;51.076;17.046;2022-09-23T10:57:16;100587.72;;;17.19;51.87
31717;BME280;18301;51.076;17.046;2022-09-23T11:03:00;100583.81;;;17.21;52.09
31717;BME280;18301;51.076;17.046;2022-09-23T11:08:16;100585.53;;;17.22;52.30
31717;BME280;18301;51.076;17.046;2022-09-23T11:18:56;100578.66;;;16.91;50.76
31717;BME280;18301;51.076;17.046;2022-09-23T11:40:27;100546.78;;;16.54;50.85
31717;BME280;18301;51.076;17.046;2022-09-23T11:45:33;100532.34;;;16.34;52.52
31717;BME280;18301;51.076;17.046;2022-09-23T11:50:43;100534.19;;;16.43;48.99
31717;BME280;18301;51.076;17.046;2022-09-23T11:55:51;100532.34;;;16.71;51.40
31717;BME280;18301;51.076;17.046;2022-09-23T12:01:03;100519.72;;;16.80;48.95
31717;BME280;18301;51.076;17.046;2022-09-23T12:06:14;100525.66;;;17.03;47.59
31717;BME280;18301;51.076;17.046;2022-09-23T12:27:07;100504.34;;;16.89;48.92
31717;BME280;18301;51.076;17.046;2022-09-23T12:32:18;100511.72;;;16.78;50.78
31717;BME280;18301;51.076;17.046;2022-09-23T12:37:26;100506.00;;;16.62;49.80
31717;BME280;18301;51.076;17.046;2022-09-23T12:42:28;100496.53;;;16.66;51.69
31717;BME280;18301;51.076;17.046;2022-09-23T12:47:38;100490.13;;;16.57;51.26
31717;BME280;18301;51.076;17.046;2022-09-23T12:52:39;100485.38;;;16.60;49.84
31717;BME280;18301;51.076;17.046;2022-09-23T12:57:41;100479.34;;;16.66;50.73
31717;BME280;18301;51.076;17.046;2022-09-23T13:07:48;100475.28;;;16.79;50.84
31717;BME280;18301;51.076;17.046;2022-09-23T13:12:51;100460.94;;;16.77;48.82
31717;BME280;18301;51.076;17.046;2022-09-23T13:23:28;100433.66;;;16.87;47.31
31717;BME280;18301;51.076;17.046;2022-09-23T13:28:52;100429.28;;;16.94;49.11
31717;BME280;18301;51.076;17.046;2022-09-23T13:34:00;100425.09;;;17.00;49.12
31717;BME280;18301;51.076;17.046;2022-09-23T13:39:33;100419.47;;;17.01;48.18
31717;BME280;18301;51.076;17.046;2022-09-23T13:44:39;100413.06;;;16.93;46.60
31717;BME280;18301;51.076;17.046;2022-09-23T13:49:41;100405.69;;;17.03;48.83
31717;BME280;18301;51.076;17.046;2022-09-23T13:54:48;100408.72;;;17.00;48.83
31717;BME280;18301;51.076;17.046;2022-09-23T13:59:50;100396.59;;;17.12;47.96
31717;BME280;18301;51.076;17.046;2022-09-23T14:04:55;100386.97;;;17.08;48.00
31717;BME280;18301;51.076;17.046;2022-09-23T14:09:56;100391.81;;;17.14;47.96
31717;BME280;18301;51.076;17.046;2022-09-23T14:14:58;100399.94;;;17.06;49.08
31717;BME280;18301;51.076;17.046;2022-09-23T14:19:59;100391.66;;;16.98;48.02
31717;BME280;18301;51.076;17.046;2022-09-23T14:25:01;100382.47;;;16.99;48.32
31717;BME280;18301;51.076;17.046;2022-09-23T14:30:04;100383.56;;;17.06;48.53
31717;BME280;18301;51.076;17.046;2022-09-23T14:35:19;100356.94;;;17.00;48.55
31717;BME280;18301;51.076;17.046;2022-09-23T14:40:34;100367.22;;;17.06;48.91
31717;BME280;18301;51.076;17.046;2022-09-23T14:45:38;100356.44;;;16.87;48.00
31717;BME280;18301;51.076;17.046;2022-09-23T14:50:46;100366.56;;;16.76;48.26
31717;BME280;18301;51.076;17.046;2022-09-23T14:55:49;100355.66;;;16.76;48.42
31717;BME280;18301;51.076;17.046;2022-09-23T15:00:58;100350.75;;;16.80;46.79
31717;BME280;18301;51.076;17.046;2022-09-23T15:06:04;100346.28;;;16.61;48.22
31717;BME280;18301;51.076;17.046;2022-09-23T15:11:10;100342.06;;;16.49;49.13
31717;BME280;18301;51.076;17.046;2022-09-23T15:16:13;100333.47;;;16.16;50.29
31717;BME280;18301;51.076;17.046;2022-09-23T15:21:17;100334.59;;;15.96;50.70
31717;BME280;18301;51.076;17.046;2022-09-23T15:26:22;100334.34;;;15.89;51.18
31717;BME280;18301;51.076;17.046;2022-09-23T15:31:23;100329.22;;;15.76;51.42
31717;BME280;18301;51.076;17.046;2022-09-23T15:36:28;100324.69;;;15.67;51.74
31717;BME280;18301;51.076;17.046;2022-09-23T15:41:29;100324.34;;;15.60;52.29
31717;BME280;18301;51.076;17.046;2022-09-23T15:46:34;100316.81;;;15.45;52.46
31717;BME280;18301;51.076;17.046;2022-09-23T15:51:36;100325.72;;;15.37;52.60
31717;BME280;18301;51.076;17.046;2022-09-23T15:56:38;100313.56;;;15.31;53.62
31717;BME280;18301;51.076;17.046;2022-09-23T16:01:41;100323.31;;;15.24;53.70
31717;BME280;18301;51.076;17.046;2022-09-23T16:06:43;100328.44;;;15.17;54.29
31717;BME280;18301;51.076;17.046;2022-09-23T16:11:48;100318.75;;;15.15;55.05
31717;BME280;18301;51.076;17.046;2022-09-23T16:16:50;100320.75;;;15.03;56.28
31717;BME280;18301;51.076;17.046;2022-09-23T16:21:52;100314.03;;;14.98;56.66
31717;BME280;18301;51.076;17.046;2022-09-23T16:26:53;100312.75;;;14.92;56.47
31717;BME280;18301;51.076;17.046;2022-09-23T16:32:00;100317.16;;;14.83;57.10
31717;BME280;18301;51.076;17.046;2022-09-23T16:37:01;100326.16;;;14.74;58.12
31717;BME280;18301;51.076;17.046;2022-09-23T16:42:04;100327.03;;;14.65;58.33
31717;BME280;18301;51.076;17.046;2022-09-23T16:47:06;100324.44;;;14.54;58.55
31717;BME280;18301;51.076;17.046;2022-09-23T16:52:08;100328.66;;;14.46;59.09
31717;BME280;18301;51.076;17.046;2022-09-23T16:57:17;100320.94;;;14.32;59.08
31717;BME280;18301;51.076;17.046;2022-09-23T17:02:18;100319.22;;;14.31;59.24
31717;BME280;18301;51.076;17.046;2022-09-23T17:07:38;100317.94;;;14.25;59.34
31717;BME280;18301;51.076;17.046;2022-09-23T17:12:40;100313.75;;;14.21;59.49
31717;BME280;18301;51.076;17.046;2022-09-23T17:17:41;100308.88;;;14.15;59.82
31717;BME280;18301;51.076;17.046;2022-09-23T17:22:42;100316.28;;;14.03;60.04
31717;BME280;18301;51.076;17.046;2022-09-23T17:27:46;100314.94;;;13.88;60.08
31717;BME280;18301;51.076;17.046;2022-09-23T17:32:48;100312.91;;;13.80;60.54
31717;BME280;18301;51.076;17.046;2022-09-23T17:37:49;100308.44;;;13.70;61.03
31717;BME280;18301;51.076;17.046;2022-09-23T17:42:51;100311.28;;;13.68;60.74
31717;BME280;18301;51.076;17.046;2022-09-23T17:47:53;100300.41;;;13.58;61.71
31717;BME280;18301;51.076;17.046;2022-09-23T17:52:55;100312.06;;;13.49;61.87
31717;BME280;18301;51.076;17.046;2022-09-23T17:57:58;100303.13;;;13.38;62.26
31717;BME280;18301;51.076;17.046;2022-09-23T18:03:00;100308.94;;;13.33;63.60
31717;BME280;18301;51.076;17.046;2022-09-23T18:08:01;100303.56;;;13.22;64.04
31717;BME280;18301;51.076;17.046;2022-09-23T18:13:06;100306.81;;;13.16;64.47
31717;BME280;18301;51.076;17.046;2022-09-23T18:18:07;100306.59;;;13.07;64.73
31717;BME280;18301;51.076;17.046;2022-09-23T18:23:09;100309.13;;;12.99;64.99
31717;BME280;18301;51.076;17.046;2022-09-23T18:28:11;100308.78;;;12.93;65.57
31717;BME280;18301;51.076;17.046;2022-09-23T18:33:12;100311.16;;;12.86;65.99
31717;BME280;18301;51.076;17.046;2022-09-23T18:38:15;100305.53;;;12.78;66.37
31717;BME280;18301;51.076;17.046;2022-09-23T18:43:16;100307.75;;;12.73;66.73
31717;BME280;18301;51.076;17.046;2022-09-23T18:48:20;100315.41;;;12.67;67.29
31717;BME280;18301;51.076;17.046;2022-09-23T18:53:40;100305.09;;;12.61;67.86
31717;BME280;18301;51.076;17.046;2022-09-23T18:58:46;100309.06;;;12.57;68.40
31717;BME280;18301;51.076;17.046;2022-09-23T19:03:53;100302.44;;;12.50;68.92
31717;BME280;18301;51.076;17.046;2022-09-23T19:08:55;100297.31;;;12.36;69.06
31717;BME280;18301;51.076;17.046;2022-09-23T19:13:58;100296.81;;;12.31;69.43
31717;BME280;18301;51.076;17.046;2022-09-23T19:19:03;100297.47;;;12.23;69.86
31717;BME280;18301;51.076;17.046;2022-09-23T19:24:06;100289.84;;;12.17;69.73
31717;BME280;18301;51.076;17.046;2022-09-23T19:29:12;100291.22;;;12.11;70.26
31717;BME280;18301;51.076;17.046;2022-09-23T19:34:17;100288.28;;;12.03;70.23
31717;BME280;18301;51.076;17.046;2022-09-23T19:39:21;100285.22;;;11.85;70.67
31717;BME280;18301;51.076;17.046;2022-09-23T19:44:25;100284.09;;;11.77;71.32
31717;BME280;18301;51.076;17.046;2022-09-23T19:49:26;100280.66;;;11.63;71.80
31717;BME280;18301;51.076;17.046;2022-09-23T19:54:28;100289.13;;;11.59;72.50
31717;BME280;18301;51.076;17.046;2022-09-23T19:59:29;100295.28;;;11.49;72.59
31717;BME280;18301;51.076;17.046;2022-09-23T20:04:31;100283.84;;;11.46;72.96
31717;BME280;18301;51.076;17.046;2022-09-23T20:09:33;100280.53;;;11.42;73.13
31717;BME280;18301;51.076;17.046;2022-09-23T20:14:35;100278.94;;;11.40;73.24
31717;BME280;18301;51.076;17.046;2022-09-23T20:19:36;100281.41;;;11.43;73.43
31717;BME280;18301;51.076;17.046;2022-09-23T20:24:38;100278.19;;;11.38;73.29
31717;BME280;18301;51.076;17.046;2022-09-23T20:29:40;100275.63;;;11.36;73.48
31717;BME280;18301;51.076;17.046;2022-09-23T20:34:43;100282.84;;;11.36;74.07
31717;BME280;18301;51.076;17.046;2022-09-23T20:39:50;100270.31;;;11.35;74.18
31717;BME280;18301;51.076;17.046;2022-09-23T20:44:52;100267.13;;;11.29;74.60
31717;BME280;18301;51.076;17.046;2022-09-23T20:49:55;100272.75;;;11.26;74.47
31717;BME280;18301;51.076;17.046;2022-09-23T20:54:56;100267.00;;;11.20;74.44
31717;BME280;18301;51.076;17.046;2022-09-23T20:59:58;100261.81;;;11.17;75.03
31717;BME280;18301;51.076;17.046;2022-09-23T21:05:00;100255.06;;;11.00;75.14
31717;BME280;18301;51.076;17.046;2022-09-23T21:10:01;100266.81;;;10.88;75.69
31717;BME280;18301;51.076;17.046;2022-09-23T21:15:06;100256.88;;;10.88;76.02
31717;BME280;18301;51.076;17.046;2022-09-23T21:20:08;100266.53;;;10.79;76.47
31717;BME280;18301;51.076;17.046;2022-09-23T21:25:09;100266.25;;;10.71;76.82
31717;BME280;18301;51.076;17.046;2022-09-23T21:30:29;100265.84;;;10.65;77.27
31717;BME280;18301;51.076;17.046;2022-09-23T21:35:30;100262.25;;;10.53;77.48
31717;BME280;18301;51.076;17.046;2022-09-23T21:40:32;100267.88;;;10.50;77.95
31717;BME280;18301;51.076;17.046;2022-09-23T21:45:55;100264.84;;;10.54;77.82
31717;BME280;18301;51.076;17.046;2022-09-23T21:51:02;100258.22;;;10.58;77.86
31717;BME280;18301;51.076;17.046;2022-09-23T21:56:16;100263.53;;;10.71;77.80
31717;BME280;18301;51.076;17.046;2022-09-23T22:01:24;100260.16;;;10.80;77.77
31717;BME280;18301;51.076;17.046;2022-09-23T22:06:27;100252.78;;;10.82;77.94
31717;BME280;18301;51.076;17.046;2022-09-23T22:11:30;100254.38;;;10.74;77.77
31717;BME280;18301;51.076;17.046;2022-09-23T22:16:51;100249.28;;;10.58;78.32
31717;BME280;18301;51.076;17.046;2022-09-23T22:21:56;100241.94;;;10.60;78.42
31717;BME280;18301;51.076;17.046;2022-09-23T22:26:57;100245.69;;;10.46;78.52
31717;BME280;18301;51.076;17.046;2022-09-23T22:32:00;100247.03;;;10.41;78.40
31717;BME280;18301;51.076;17.046;2022-09-23T22:37:25;100237.03;;;10.30;78.35
31717;BME280;18301;51.076;17.046;2022-09-23T22:42:27;100239.53;;;10.20;78.67
31717;BME280;18301;51.076;17.046;2022-09-23T22:47:31;100237.97;;;10.05;78.95
31717;BME280;18301;51.076;17.046;2022-09-23T22:52:36;100238.06;;;10.03;79.29
31717;BME280;18301;51.076;17.046;2022-09-23T22:57:38;100234.41;;;10.04;79.10
31717;BME280;18301;51.076;17.046;2022-09-23T23:02:40;100230.34;;;9.99;79.08
31717;BME280;18301;51.076;17.046;2022-09-23T23:07:42;100227.78;;;9.84;79.29
31717;BME280;18301;51.076;17.046;2022-09-23T23:12:44;100222.34;;;9.73;80.00
31717;BME280;18301;51.076;17.046;2022-09-23T23:17:47;100227.50;;;9.76;79.97
31717;BME280;18301;51.076;17.046;2022-09-23T23:22:48;100224.91;;;9.75;79.99
31717;BME280;18301;51.076;17.046;2022-09-23T23:27:49;100225.50;;;9.67;80.88
31717;BME280;18301;51.076;17.046;2022-09-23T23:32:51;100223.06;;;9.75;80.40
31717;BME280;18301;51.076;17.046;2022-09-23T23:37:52;100214.72;;;9.67;81.11
31717;BME280;18301;51.076;17.046;2022-09-23T23:42:54;100215.38;;;9.45;81.20
31717;BME280;18301;51.076;17.046;2022-09-23T23:47:55;100205.94;;;9.39;82.08
31717;BME280;18301;51.076;17.046;2022-09-23T23:52:57;100197.41;;;9.45;82.03
31717;BME280;18301;51.076;17.046;2022-09-23T23:57:58;100191.38;;;9.55;82.01
